Mount Forest, Ontario

3:16 AM EDT on March 27, 2015 (GMT -0400)
Allan Park | | Change Station
CLOSE
Current Station
Personal Weather Station
Location: Hanover, ONTARIO
Elevation: 958 ft
Nearby Weather Stations

Elev 958 ft 44.17 °N, 80.93 °W | Updated 1 minute ago

Overcast
Overcast
26.4 °F
Feels Like 20 °F
N
6.0
Wind Variable Wind from North
Gusts 15.0 mph

Today is forecast to be nearly the same temperature as yesterday.

Today
High -- | Low -- °F
--% Chance of Precip.
Yesterday
High -- | Low -- °F
Precip. -- in
7:13 AM 7:43 PM
Waxing Crescent, 50% visible
Pressure 29.85 in
Visibility 9.0 miles
Clouds Overcast 1100 ft
Windchill 20 °F
Dew Point 26 °F
Humidity 100%
Rainfall -999.00 in
Snow Depth Not available.
UV 0 out of 12
Pollen Not available.
Air Quality Not available.
Flu Activity Not available.
METAR CYKF 270700Z AUTO 29009KT 9SM OVC011 M02/M04 A2982 RMK SLP108

More Conditions Fewer Conditions

Pressure 29.85 in
Visibility 9.0 miles
Clouds Overcast 1100 ft
Windchill 20 °F
Dew Point 26 °F
Humidity 100%
Rainfall -999.00 in
Snow Depth Not available.
UV 0 out of 12
Pollen Not available.
Air Quality Not available.
Flu Activity Not available.
METAR CYKF 270700Z AUTO 29009KT 9SM OVC011 M02/M04 A2982 RMK SLP108

More Conditions Fewer Conditions

10-Day Weather Forecast

Almanac

Astronomy

Mar. 27, 2015 Rise Set
Actual Time
Civil Twilight
Nautical Twilight
Astronomical Twilight
Moon
Length of Visible Light
Length of Day
Tomorrow will be .
, % of the Moon is Illuminated

Today's Extremes

Country Highs Country Lows

Community

WunderPhotos

Upload Photos

1,808,701 photos uploaded!

WunderBlogs® & News

Nearby

Air Quality

  Air Quality AQ Index Pollutant
Not available.

Snow Depth

Station Depth Elevation

Earthquake Activity

City Distance Mag. Time & Date
Minimum magnitude displayed is 2.5.

Coastal Water Temperatures

Place Temperature

Stations

Nearby Weather Stations

Station Location Temp. Windchill Dew Point Humidity Wind Precip. Elev Updated Type